Time;durP1;ratioP1;P1;durP2;ratioP2;P2;SDS_P1;SDS_P2;PMS_P1;PMS_P2;Temp;Humidity;BMP_temperature;BMP_pressure;BME280_temperature;BME280_humidity;BME280_pressure;Samples;Min_cycle;Max_cycle;Signal;HPM_P1;HPM_P2
2022/05/26 00:04:25;;;;;;;18.20;13.70;;;;;;;12.26;100.00;101342.94;10152501;29;20036;-89
2022/05/26 00:09:25;;;;;;;17.70;12.55;;;;;;;11.51;100.00;101254.06;10154608;29;20087;-86
2022/05/26 00:14:26;;;;;;;22.15;14.23;;;;;;;11.70;100.00;101267.59;10128858;29;20094;-88
2022/05/26 00:19:27;;;;;;;22.52;14.10;;;;;;;12.11;100.00;101326.16;10169647;29;20028;-88
2022/05/26 00:24:27;;;;;;;21.42;13.43;;;;;;;11.46;100.00;101226.38;10184021;29;20090;-87
2022/05/26 00:41:06;;;;;;;17.05;11.00;;;;;;;11.16;100.00;101165.25;11073612;23;20085;-93
2022/05/26 00:46:13;;;;;;;17.70;11.48;;;;;;;11.57;100.00;101254.13;10205961;23;20042;-94
2022/05/26 00:51:14;;;;;;;15.25;10.25;;;;;;;11.51;100.00;101253.19;10160152;29;20055;-92
2022/05/26 00:56:19;;;;;;;20.15;12.05;;;;;;;11.43;100.00;101224.16;10163493;29;20034;-93
2022/05/26 01:01:21;;;;;;;25.00;12.13;;;;;;;11.49;100.00;101264.50;10164616;29;20492;-93
2022/05/26 01:06:34;;;;;;;28.75;14.85;;;;;;;11.19;100.00;101217.13;10177227;29;20044;-94
2022/05/26 01:11:36;;;;;;;29.35;12.82;;;;;;;11.25;100.00;101224.41;10164220;29;20056;-91
2022/05/26 01:17:15;;;;;;;27.30;14.02;;;;;;;11.94;100.00;101339.97;10176806;29;20028;-93
2022/05/26 01:22:23;;;;;;;26.58;14.02;;;;;;;11.53;100.00;101281.34;10159136;29;20031;-94
2022/05/26 01:27:32;;;;;;;34.53;15.20;;;;;;;12.51;100.00;101461.22;10167600;29;20062;-94
2022/05/26 01:32:48;;;;;;;31.45;16.20;;;;;;;12.29;100.00;101452.84;10155372;29;20046;-95
2022/05/26 01:37:55;;;;;;;41.17;17.42;;;;;;;12.16;100.00;101389.72;10179680;29;20034;-93
2022/05/26 01:43:02;;;;;;;40.55;17.88;;;;;;;12.18;100.00;101382.03;10186947;29;20032;-94
2022/05/26 01:48:11;;;;;;;43.63;18.17;;;;;;;11.59;100.00;101296.06;10196963;28;20043;-94
2022/05/26 01:53:30;;;;;;;47.45;18.92;;;;;;;12.28;100.00;101406.19;10195422;28;20031;-93
2022/05/26 01:58:34;;;;;;;40.72;17.60;;;;;;;12.70;100.00;101466.47;10206625;28;20051;-93
2022/05/26 02:03:34;;;;;;;43.38;19.10;;;;;;;11.42;100.00;101277.59;10202214;28;20035;-94
2022/05/26 02:08:42;;;;;;;39.42;17.67;;;;;;;12.20;100.00;101424.00;10204246;28;20079;-96
2022/05/26 02:13:49;;;;;;;54.22;18.85;;;;;;;11.43;100.00;101306.84;10203678;28;20090;-94
2022/05/26 02:19:05;;;;;;;51.50;18.20;;;;;;;11.14;100.00;101272.16;10201116;28;20035;-94
2022/05/26 02:24:30;;;;;;;43.00;16.90;;;;;;;11.16;100.00;101259.78;10213052;28;20023;-93
2022/05/26 02:34:54;;;;;;;38.85;14.65;;;;;;;11.50;100.00;101318.53;10226337;28;20027;-94
2022/05/26 02:39:55;;;;;;;36.88;12.70;;;;;;;11.86;100.00;101382.56;10216599;28;20033;-94
2022/05/26 02:44:56;;;;;;;53.45;16.35;;;;;;;11.57;100.00;101353.41;10209671;28;20034;-94
2022/05/26 02:50:02;;;;;;;47.00;15.63;;;;;;;11.91;100.00;101374.44;10249882;28;20516;-93
2022/05/26 02:55:18;;;;;;;41.03;14.20;;;;;;;12.30;100.00;101437.97;10261357;28;20042;-93
2022/05/26 03:00:25;;;;;;;42.70;14.82;;;;;;;11.23;100.00;101278.94;10257460;28;20027;-93
2022/05/26 03:05:41;;;;;;;40.08;11.85;;;;;;;12.17;100.00;101410.69;10226013;28;20028;-93
2022/05/26 03:10:47;;;;;;;37.97;12.10;;;;;;;12.40;100.00;101484.25;10226950;28;20050;-93
2022/05/26 03:15:47;;;;;;;36.00;11.13;;;;;;;11.27;100.00;101291.97;10225519;28;20440;-93
2022/05/26 03:20:48;;;;;;;40.28;10.88;;;;;;;11.44;100.00;101338.84;10228916;28;20027;-93
2022/05/26 03:25:49;;;;;;;35.13;10.68;;;;;;;10.74;100.00;101232.59;10240663;28;20054;-93
2022/05/26 03:30:49;;;;;;;34.75;11.88;;;;;;;12.46;100.00;101510.84;10225366;28;20452;-93
2022/05/26 03:41:16;;;;;;;42.80;11.05;;;;;;;10.80;100.00;101263.81;10253975;28;20118;-91
2022/05/26 03:46:17;;;;;;;40.58;11.20;;;;;;;11.09;100.00;101326.06;10221920;28;20071;-93
2022/05/26 03:51:17;;;;;;;36.95;10.60;;;;;;;10.51;100.00;101219.75;10166305;29;20067;-92
2022/05/26 03:56:18;;;;;;;39.15;11.50;;;;;;;11.23;100.00;101361.63;10178383;29;20054;-94
2022/05/26 04:01:19;;;;;;;43.80;12.85;;;;;;;11.41;100.00;101371.56;10175900;29;20165;-94
2022/05/26 04:06:21;;;;;;;45.78;12.00;;;;;;;10.75;100.00;101299.50;10175551;29;20465;-91
2022/05/26 04:11:24;;;;;;;40.25;11.25;;;;;;;12.43;100.00;101599.72;10180254;29;20052;-93
2022/05/26 04:16:24;;;;;;;48.60;11.18;;;;;;;11.37;100.00;101385.03;10160866;29;20043;-92
2022/05/26 04:21:26;;;;;;;41.13;10.23;;;;;;;10.60;100.00;101278.84;10183038;29;20032;-93
2022/05/26 04:26:27;;;;;;;33.17;8.18;;;;;;;11.20;100.00;101389.66;10184381;29;20040;-94
2022/05/26 04:31:29;;;;;;;28.65;7.57;;;;;;;11.29;100.00;101400.06;10166361;29;20111;-92
2022/05/26 04:36:30;;;;;;;33.17;7.50;;;;;;;11.66;100.00;101476.84;10164655;29;20043;-93
2022/05/26 04:41:31;;;;;;;27.83;7.03;;;;;;;11.27;100.00;101417.94;10166508;29;20039;-92
2022/05/26 04:46:31;;;;;;;26.88;6.57;;;;;;;10.89;100.00;101339.47;10144761;29;20062;-92
2022/05/26 04:51:34;;;;;;;34.60;6.63;;;;;;;11.22;100.00;101404.84;10150748;29;20050;-92
2022/05/26 04:56:35;;;;;;;26.48;6.25;;;;;;;12.23;100.00;101544.97;10145474;29;20149;-93
2022/05/26 05:01:36;;;;;;;20.90;5.35;;;;;;;10.93;100.00;101332.38;10157512;29;20043;-92
2022/05/26 05:06:36;;;;;;;18.73;5.30;;;;;;;11.84;100.00;101500.63;10164729;29;20108;-92
2022/05/26 05:11:37;;;;;;;19.55;5.13;;;;;;;11.64;100.00;101478.19;10180941;28;20127;-94
2022/05/26 05:16:45;;;;;;;20.70;3.60;;;;;;;11.65;100.00;101455.03;10176072;29;20055;-93
2022/05/26 05:22:00;;;;;;;10.05;2.20;;;;;;;12.82;100.00;101610.03;10180978;29;20043;-94
2022/05/26 05:27:13;;;;;;;12.25;2.70;;;;;;;11.48;100.00;101414.47;10177425;29;20055;-94
2022/05/26 05:32:22;;;;;;;11.07;2.60;;;;;;;12.85;100.00;101623.34;10135921;29;20036;-90
2022/05/26 05:37:23;;;;;;;11.90;2.78;;;;;;;11.81;100.00;101469.94;10157770;29;20039;-93
2022/05/26 05:42:23;;;;;;;7.00;2.13;;;;;;;11.90;100.00;101477.59;10164023;29;20079;-94
2022/05/26 05:47:25;;;;;;;12.63;2.05;;;;;;;13.07;100.00;101660.19;10170593;29;20040;-93
2022/05/26 05:52:26;;;;;;;10.05;1.50;;;;;;;12.17;100.00;101487.97;10157951;29;20096;-91
2022/05/26 05:57:26;;;;;;;8.05;1.60;;;;;;;12.17;100.00;101504.56;10177817;29;20058;-92
2022/05/26 06:02:27;;;;;;;9.55;1.70;;;;;;;12.63;100.00;101568.00;10164991;29;20072;-87
2022/05/26 06:07:28;;;;;;;11.77;1.83;;;;;;;12.60;100.00;101496.69;10127392;29;20048;-86
2022/05/26 06:12:28;;;;;;;9.15;1.67;;;;;;;12.88;100.00;101501.25;10102404;29;20032;-86
2022/05/26 06:17:29;;;;;;;8.10;1.90;;;;;;;13.69;100.00;101625.16;10143517;29;20091;-87
2022/05/26 06:22:30;;;;;;;6.70;1.40;;;;;;;12.80;100.00;101469.38;10125498;29;20107;-87
2022/05/26 06:38:12;;;;;;;11.98;1.50;;;;;;;13.51;100.00;101513.72;10134205;29;20400;-87
2022/05/26 06:43:14;;;;;;;11.10;1.40;;;;;;;14.42;100.00;101627.66;10099471;29;20128;-86
2022/05/26 06:48:15;;;;;;;5.63;0.93;;;;;;;14.00;100.00;101592.31;10116413;29;20568;-87
2022/05/26 06:53:20;;;;;;;7.72;1.00;;;;;;;13.87;100.00;101555.66;10179908;29;20051;-87
2022/05/26 06:58:51;;;;;;;4.45;1.42;;;;;;;14.45;100.00;101574.47;10117156;29;20046;-91
2022/05/26 07:03:59;;;;;;;6.97;1.20;;;;;;;14.61;100.00;101586.56;10136538;28;20163;-90
2022/05/26 07:09:00;;;;;;;11.93;2.05;;;;;;;14.95;100.00;101663.94;10155034;28;20573;-88
2022/05/26 07:14:01;;;;;;;11.05;1.77;;;;;;;14.38;100.00;101543.41;10171790;28;20032;-86
2022/05/26 07:19:01;;;;;;;7.07;1.20;;;;;;;15.53;100.00;101628.81;10182642;28;20042;-88
2022/05/26 07:24:02;;;;;;;5.80;1.20;;;;;;;15.21;100.00;101545.69;10198287;28;20114;-87
2022/05/26 07:29:02;;;;;;;11.60;1.20;;;;;;;14.59;100.00;101517.56;10224003;28;20573;-87
2022/05/26 07:34:03;;;;;;;5.45;0.73;;;;;;;14.27;100.00;101525.84;10174888;28;20127;-87
2022/05/26 07:44:26;;;;;;;6.65;1.00;;;;;;;13.77;100.00;101486.34;10208531;28;20032;-90
2022/05/26 07:49:47;;;;;;;2.78;0.55;;;;;;;14.39;100.00;101557.00;10174451;28;20031;-86
2022/05/26 07:54:48;;;;;;;6.07;1.08;;;;;;;13.90;100.00;101505.28;10203312;28;20063;-87
2022/05/26 07:59:49;;;;;;;5.45;0.80;;;;;;;14.97;100.00;101645.94;10198410;28;20055;-88
2022/05/26 08:04:50;;;;;;;5.22;1.45;;;;;;;14.85;100.00;101578.72;10143932;28;20036;-88
2022/05/26 08:09:50;;;;;;;5.43;1.00;;;;;;;15.05;100.00;101581.66;10154192;28;20988;-87
2022/05/26 08:14:51;;;;;;;4.63;1.73;;;;;;;14.89;100.00;101510.56;10120921;28;20027;-89
2022/05/26 08:19:52;;;;;;;5.72;0.80;;;;;;;16.04;100.00;101667.09;10159206;28;20379;-88
2022/05/26 08:24:53;;;;;;;6.95;1.00;;;;;;;16.00;100.00;101621.53;10196836;28;20051;-88
2022/05/26 08:29:54;;;;;;;3.85;1.45;;;;;;;15.61;100.00;101542.25;10220449;28;20063;-88
2022/05/26 08:35:03;;;;;;;3.72;0.70;;;;;;;15.79;100.00;101624.25;10193068;28;20416;-87
2022/05/26 08:40:05;;;;;;;10.35;1.27;;;;;;;16.27;100.00;101669.44;10205112;28;20055;-88
2022/05/26 08:45:12;;;;;;;2.53;0.50;;;;;;;16.86;100.00;101765.50;10170890;28;20079;-88
2022/05/26 08:50:19;;;;;;;3.85;0.80;;;;;;;15.97;100.00;101592.38;10168730;29;20050;-88
2022/05/26 08:55:46;;;;;;;4.40;0.85;;;;;;;17.43;100.00;101776.69;10182235;28;20058;-90
2022/05/26 09:00:48;;;;;;;3.45;1.10;;;;;;;15.98;100.00;101601.53;10157054;28;20027;-88
2022/05/26 09:05:51;;;;;;;5.97;0.95;;;;;;;16.70;100.00;101685.91;10058268;28;20075;-87
2022/05/26 09:16:15;;;;;;;4.57;0.80;;;;;;;17.14;97.82;101764.16;10177190;29;20510;-87
2022/05/26 09:21:23;;;;;;;5.25;0.65;;;;;;;17.23;97.58;101778.34;10166309;29;20027;-87
2022/05/26 09:26:24;;;;;;;7.75;0.70;;;;;;;16.38;94.34;101625.00;10165741;28;20038;-86
2022/05/26 09:31:35;;;;;;;6.43;0.90;;;;;;;17.44;94.27;101778.34;10157892;28;20047;-86
2022/05/26 09:36:37;;;;;;;3.10;0.60;;;;;;;17.56;94.35;101790.03;10168909;28;20027;-86
2022/05/26 09:41:56;;;;;;;4.65;0.80;;;;;;;18.17;94.97;101732.53;10220695;28;20085;-92
2022/05/26 09:46:59;;;;;;;5.45;1.05;;;;;;;17.19;91.44;101584.41;10204103;28;20050;-87
2022/05/26 09:52:17;;;;;;;6.40;0.82;;;;;;;16.99;88.17;101597.25;10204157;28;20046;-88
2022/05/26 09:57:20;;;;;;;3.30;0.57;;;;;;;17.03;89.98;101659.56;10190012;28;20035;-87
2022/05/26 10:02:34;;;;;;;3.55;0.60;;;;;;;17.09;87.17;101644.50;10171477;28;20023;-87
2022/05/26 10:07:56;;;;;;;4.90;0.57;;;;;;;17.75;87.09;101648.25;10183848;28;20040;-86
2022/05/26 10:13:49;;;;;;;3.53;0.65;;;;;;;18.73;82.83;101796.44;10217345;28;20031;-88
2022/05/26 10:19:06;;;;;;;2.50;0.57;;;;;;;18.97;86.10;101795.75;10177526;28;20036;-87
2022/05/26 10:24:21;;;;;;;4.30;1.00;;;;;;;17.96;79.76;101715.91;10203097;28;20032;-89
2022/05/26 10:29:45;;;;;;;4.07;0.80;;;;;;;18.80;80.90;101787.78;10185205;28;20081;-91
2022/05/26 10:34:54;;;;;;;5.60;0.57;;;;;;;18.67;81.09;101798.41;10188916;28;20094;-85
2022/05/26 10:40:12;;;;;;;3.83;0.47;;;;;;;18.68;80.98;101716.38;10171846;28;20107;-88
2022/05/26 10:45:17;;;;;;;3.45;0.63;;;;;;;18.76;82.63;101746.47;10233677;28;20030;-89
2022/05/26 10:50:39;;;;;;;4.20;0.70;;;;;;;18.60;80.74;101728.16;10207708;28;20047;-88
2022/05/26 10:56:04;;;;;;;3.83;1.20;;;;;;;19.25;80.18;101788.59;10239269;28;20047;-86
2022/05/26 11:01:11;;;;;;;6.65;0.85;;;;;;;18.01;78.63;101603.63;10247811;28;20027;-90
2022/05/26 11:06:26;;;;;;;2.35;0.77;;;;;;;17.32;80.50;101537.34;10209025;28;20495;-89
2022/05/26 11:11:44;;;;;;;3.63;0.70;;;;;;;18.56;82.43;101693.59;10179335;28;20039;-92
2022/05/26 11:22:17;;;;;;;4.03;0.63;;;;;;;19.88;81.52;101793.38;10194613;28;20036;-90
2022/05/26 11:27:33;;;;;;;8.73;1.98;;;;;;;19.00;83.01;101711.47;10187738;28;20039;-91
2022/05/26 11:38:17;;;;;;;5.47;0.80;;;;;;;17.90;83.70;101701.19;10188136;29;20111;-90
2022/05/26 11:43:33;;;;;;;6.10;0.82;;;;;;;17.46;88.46;101612.72;10177351;28;20506;-90
2022/05/26 11:48:33;;;;;;;3.75;0.65;;;;;;;19.80;81.82;101780.03;10184048;28;20058;-88
2022/05/26 11:53:48;;;;;;;4.50;0.88;;;;;;;18.12;83.99;101606.03;10185923;28;20036;-91
2022/05/26 11:58:52;;;;;;;5.72;1.08;;;;;;;18.49;88.31;101819.41;10162563;28;20079;-90
2022/05/26 12:04:01;;;;;;;5.47;0.85;;;;;;;18.24;93.14;101811.97;10191840;28;20035;-90
2022/05/26 12:09:20;;;;;;;3.92;1.20;;;;;;;18.21;94.01;101804.19;10186063;28;20079;-91
2022/05/26 12:14:36;;;;;;;3.47;0.80;;;;;;;17.13;93.19;101600.25;10151596;28;20036;-92
2022/05/26 12:19:44;;;;;;;6.15;1.45;;;;;;;18.39;87.80;101682.00;10115517;28;20078;-93
2022/05/26 12:25:15;;;;;;;6.00;1.35;;;;;;;18.22;84.25;101529.09;10165803;28;20101;-92
2022/05/26 12:30:43;;;;;;;5.22;0.85;;;;;;;19.12;83.63;101782.56;10114610;28;20043;-91
2022/05/26 12:36:02;;;;;;;8.07;1.55;;;;;;;17.87;86.38;101725.97;10162407;28;20027;-92
2022/05/26 12:41:51;;;;;;;4.53;1.13;;;;;;;18.64;88.29;101771.06;10057580;28;20043;-92
2022/05/26 12:47:28;;;;;;;;;;;;;;;;;;;;;
2022/05/26 12:52:35;;;;;;;5.30;1.10;;;;;;;18.79;82.70;101756.25;10174155;28;20126;-89
2022/05/26 12:57:35;;;;;;;4.07;0.90;;;;;;;17.05;87.30;101611.97;10169128;28;20038;-89
2022/05/26 13:02:40;;;;;;;4.35;1.10;;;;;;;17.69;88.41;101677.25;10165877;28;20039;-90
2022/05/26 13:07:44;;;;;;;7.07;1.77;;;;;;;17.13;87.47;101601.09;10153963;28;20039;-91
2022/05/26 13:12:48;;;;;;;9.95;2.13;;;;;;;17.86;87.22;101638.78;10167271;28;20035;-90
2022/05/26 13:17:49;;;;;;;5.18;1.40;;;;;;;17.69;87.29;101627.13;10157652;28;20032;-89
2022/05/26 13:22:50;;;;;;;8.02;1.92;;;;;;;16.83;92.23;101570.56;10189571;28;20031;-91
2022/05/26 13:27:55;;;;;;;6.57;1.00;;;;;;;18.41;89.44;101771.75;10145686;28;20039;-91
2022/05/26 13:33:09;;;;;;;7.22;2.20;;;;;;;16.65;91.67;101556.06;10196796;28;20041;-91
2022/05/26 13:38:30;;;;;;;3.78;1.25;;;;;;;16.79;90.92;101670.34;10190153;28;20035;-92
2022/05/26 13:43:32;;;;;;;4.60;1.45;;;;;;;17.81;91.81;101791.97;10196219;28;20035;-92
2022/05/26 13:48:42;;;;;;;6.07;1.30;;;;;;;17.37;90.02;101728.53;10203333;28;20044;-90
2022/05/26 13:53:56;;;;;;;7.82;1.20;;;;;;;16.86;89.56;101681.22;10153366;28;20036;-90
2022/05/26 13:59:01;;;;;;;4.75;1.08;;;;;;;16.79;89.66;101636.97;10204460;28;20375;-90
2022/05/26 14:04:01;;;;;;;4.68;1.33;;;;;;;16.28;90.71;101570.22;10172122;28;20032;-91
2022/05/26 14:09:04;;;;;;;8.70;2.25;;;;;;;15.92;91.66;101518.22;10144670;28;20039;-91
2022/05/26 14:14:24;;;;;;;6.40;1.30;;;;;;;17.32;90.41;101773.91;10181876;28;22021;-92
2022/05/26 14:19:33;;;;;;;8.20;1.10;;;;;;;16.50;90.66;101631.13;10215919;28;20031;-89
2022/05/26 14:24:37;;;;;;;10.63;1.42;;;;;;;16.17;91.10;101624.13;10177784;28;20024;-90
2022/05/26 14:29:38;;;;;;;6.25;1.00;;;;;;;16.49;94.47;101607.19;10184126;28;20043;-92
2022/05/26 14:35:01;;;;;;;3.38;1.20;;;;;;;16.72;91.46;101686.47;10175336;28;20031;-91
2022/05/26 14:40:05;;;;;;;8.35;1.75;;;;;;;15.81;94.33;101549.84;10193549;28;20519;-92
2022/05/26 14:45:09;;;;;;;7.20;1.38;;;;;;;16.39;96.89;101671.09;10146942;28;20028;-89
2022/05/26 14:50:10;;;;;;;4.85;1.20;;;;;;;15.70;97.92;101500.94;10142654;28;20613;-93
2022/05/26 14:55:27;;;;;;;10.48;1.30;;;;;;;15.63;96.61;101469.84;10144009;28;20137;-93
2022/05/26 15:00:43;;;;;;;5.22;1.83;;;;;;;15.89;97.19;101565.13;10101906;28;20156;-93
2022/05/26 15:05:52;;;;;;;7.82;2.17;;;;;;;15.92;98.44;101637.63;10117796;28;20459;-95
2022/05/26 15:10:53;;;;;;;9.30;3.13;;;;;;;16.39;100.00;101722.00;10115738;28;20055;-90
2022/05/26 15:15:58;;;;;;;8.70;1.92;;;;;;;15.71;99.38;101583.13;10134210;28;20026;-93
2022/05/26 15:21:01;;;;;;;5.97;1.48;;;;;;;16.11;97.89;101648.25;10120133;28;20121;-92
2022/05/26 15:26:19;;;;;;;6.97;1.83;;;;;;;16.49;98.62;101691.41;10013854;29;20080;-93
2022/05/26 15:31:23;;;;;;;9.25;2.38;;;;;;;15.95;100.00;101636.25;10099855;28;20187;-94
2022/05/26 15:36:30;;;;;;;7.00;2.30;;;;;;;15.67;97.58;101576.44;10131139;28;20043;-89
2022/05/26 15:41:31;;;;;;;7.28;2.30;;;;;;;15.87;98.31;101648.69;10156046;28;20107;-91
2022/05/26 15:46:34;;;;;;;6.55;1.77;;;;;;;16.80;99.07;101749.88;10102354;28;20086;-90
2022/05/26 15:51:47;;;;;;;;;;;;;;;;;;;;;
2022/05/26 15:57:40;;;;;;;;;;;;;;;;;;;;;
2022/05/26 16:02:31;;;;;;;7.80;1.55;;;;;;;16.02;100.00;101672.94;10125228;28;20062;-90
2022/05/26 16:07:35;;;;;;;6.68;2.10;;;;;;;15.02;100.00;101540.56;10140851;28;20032;-91
2022/05/26 16:12:59;;;;;;;8.63;2.13;;;;;;;15.60;100.00;101636.91;10118041;28;20052;-90
2022/05/26 16:18:04;;;;;;;7.20;1.40;;;;;;;16.21;100.00;101726.09;10104524;28;20115;-90
2022/05/26 16:23:21;;;;;;;;;;;;;;;;;;;;;
2022/05/26 16:28:23;;;;;;;7.20;2.08;;;;;;;14.85;100.00;101656.34;10051933;28;20404;-92
2022/05/26 16:33:23;;;;;;;8.43;2.65;;;;;;;14.84;100.00;101712.88;10061898;28;20020;-90
2022/05/26 16:38:26;;;;;;;6.80;2.00;;;;;;;14.85;100.00;101665.50;10108141;28;20494;-90
2022/05/26 16:43:30;;;;;;;6.70;2.00;;;;;;;14.65;100.00;101594.09;10085750;28;20088;-90
2022/05/26 16:48:34;;;;;;;9.55;1.83;;;;;;;14.99;100.00;101609.63;10076631;29;20224;-90
2022/05/26 16:53:47;;;;;;;6.45;1.70;;;;;;;15.15;100.00;101616.91;10040524;29;20043;-92
2022/05/26 17:04:50;;;;;;;;;;;;;;;;;;;;;
2022/05/26 17:10:05;;;;;;;6.75;1.60;;;;;;;15.35;100.00;101674.47;10123394;29;20090;-90
2022/05/26 17:25:49;;;;;;;8.30;2.30;;;;;;;14.76;100.00;101638.53;10168877;29;20095;-90
2022/05/26 17:30:49;;;;;;;8.60;1.92;;;;;;;14.54;100.00;101633.88;10164888;29;20050;-87
2022/05/26 17:35:50;;;;;;;7.78;2.22;;;;;;;14.15;100.00;101542.63;10084986;29;20035;-87
2022/05/26 17:40:52;;;;;;;8.70;2.50;;;;;;;14.54;100.00;101597.84;10099793;29;20032;-91
2022/05/26 17:45:53;;;;;;;8.32;2.20;;;;;;;13.85;100.00;101502.47;10153732;28;20480;-90
2022/05/26 17:50:54;;;;;;;9.38;2.10;;;;;;;14.01;100.00;101525.59;10106536;28;20063;-87
2022/05/26 17:55:57;;;;;;;9.38;3.05;;;;;;;13.42;100.00;101435.06;10157177;28;20039;-90
2022/05/26 18:01:15;;;;;;;12.15;2.97;;;;;;;13.99;100.00;101502.06;10085592;28;20028;-92
2022/05/26 18:06:17;;;;;;;9.95;3.60;;;;;;;13.62;100.00;101484.25;10134945;28;20039;-91
2022/05/26 18:11:23;;;;;;;12.95;4.18;;;;;;;13.86;100.00;101567.81;10079946;28;20422;-91
2022/05/26 18:16:29;;;;;;;14.23;5.13;;;;;;;13.53;100.00;101522.59;10143139;28;20030;-89
2022/05/26 18:21:47;;;;;;;12.30;4.68;;;;;;;13.89;100.00;101592.22;10150801;28;20070;-86
2022/05/26 18:26:47;;;;;;;17.98;4.70;;;;;;;14.44;100.00;101687.25;10201322;28;20039;-90
2022/05/26 18:31:49;;;;;;;20.38;5.13;;;;;;;13.72;100.00;101569.28;10161240;28;20042;-91
2022/05/26 18:36:52;;;;;;;13.85;5.43;;;;;;;13.69;100.00;101576.19;10096897;28;20032;-91
2022/05/26 18:41:53;;;;;;;20.50;6.35;;;;;;;13.78;100.00;101595.09;10111081;28;20042;-91
2022/05/26 18:46:55;;;;;;;17.42;6.45;;;;;;;13.15;100.00;101525.38;10119223;28;20047;-92
2022/05/26 18:52:03;;;;;;;17.40;6.85;;;;;;;12.67;100.00;101459.53;10139512;28;20103;-93
2022/05/26 18:57:26;;;;;;;;;;;;;;;;;;;;;
2022/05/26 19:02:46;;;;;;;;;;;;;;;;;;;;;
2022/05/26 19:08:07;;;;;;;24.20;9.27;;;;;;;13.58;100.00;101653.78;10244046;23;20082;-73
2022/05/26 19:13:08;;;;;;;23.30;10.07;;;;;;;13.53;100.00;101638.78;10261499;29;20471;-74
2022/05/26 19:18:09;;;;;;;23.95;10.23;;;;;;;13.48;100.00;101633.19;10227543;29;20039;-74
2022/05/26 19:23:11;;;;;;;20.60;10.77;;;;;;;13.49;100.00;101643.16;10261910;29;20363;-74
2022/05/26 19:28:11;;;;;;;24.67;10.35;;;;;;;13.46;100.00;101643.66;10210649;29;20062;-75
2022/05/26 19:33:12;;;;;;;27.30;10.05;;;;;;;13.49;100.00;101643.16;10244680;29;20063;-74
2022/05/26 19:38:13;;;;;;;28.60;10.95;;;;;;;13.50;100.00;101630.19;10243830;29;20039;-74
2022/05/26 19:43:33;;;;;;;25.52;9.73;;;;;;;13.48;100.00;101644.25;10243775;29;20042;-72
2022/05/26 19:48:33;;;;;;;32.00;10.07;;;;;;;13.57;100.00;101643.81;10251031;28;20089;-76
2022/05/26 19:53:34;;;;;;;24.10;11.52;;;;;;;13.62;100.00;101663.25;10284095;28;20046;-77
2022/05/26 19:58:34;;;;;;;24.33;10.00;;;;;;;13.65;100.00;101657.22;10302033;28;20046;-76
2022/05/26 20:03:35;;;;;;;25.90;10.98;;;;;;;13.68;100.00;101653.91;10284935;28;20047;-75
2022/05/26 20:08:37;;;;;;;29.77;11.00;;;;;;;13.70;100.00;101660.91;10242340;28;1255666;-75
2022/05/26 20:13:37;;;;;;;22.38;11.57;;;;;;;13.65;100.00;101646.16;10303187;28;20079;-76
2022/05/26 20:18:38;;;;;;;32.55;10.43;;;;;;;13.62;100.00;101641.97;10295246;28;20089;-76
2022/05/26 20:23:40;;;;;;;22.63;9.05;;;;;;;13.64;100.00;101650.84;10244505;29;20031;-76
2022/05/26 20:34:00;;;;;;;24.35;9.60;;;;;;;13.68;100.00;101657.53;10230842;29;20039;-75
2022/05/26 20:39:00;;;;;;;27.05;10.13;;;;;;;13.69;100.00;101659.19;10261534;29;20403;-74
2022/05/26 20:44:00;;;;;;;27.48;10.73;;;;;;;13.66;100.00;101667.16;10244284;29;20050;-74
2022/05/26 20:49:01;;;;;;;21.58;9.95;;;;;;;13.63;100.00;101673.22;10243447;29;20046;-75
2022/05/26 20:54:04;;;;;;;34.17;11.23;;;;;;;13.63;100.00;101671.28;10209777;29;20031;-75
2022/05/26 20:59:04;;;;;;;29.83;10.90;;;;;;;13.57;100.00;101663.19;10227822;29;20547;-76
2022/05/26 21:04:05;;;;;;;26.90;11.25;;;;;;;13.63;100.00;101662.16;10260688;29;20038;-76
2022/05/26 21:09:05;;;;;;;34.90;11.40;;;;;;;13.67;100.00;101657.78;10240786;29;20079;-77
2022/05/26 21:14:06;;;;;;;33.40;11.85;;;;;;;13.70;100.00;101660.03;10224531;29;20046;-77
2022/05/26 21:19:07;;;;;;;33.55;11.80;;;;;;;13.71;100.00;101661.72;10257275;29;20043;-76
2022/05/26 21:24:09;;;;;;;24.08;9.77;;;;;;;13.62;100.00;101646.63;10239592;29;20089;-76
2022/05/26 21:29:15;;;;;;;32.22;11.18;;;;;;;13.74;100.00;101666.72;10223165;29;20039;-75
2022/05/26 21:34:15;;;;;;;34.65;11.20;;;;;;;13.70;100.00;101648.97;10204719;29;20035;-75
2022/05/26 21:39:16;;;;;;;31.52;11.98;;;;;;;13.69;100.00;101652.84;10256871;29;20051;-75
2022/05/26 21:44:16;;;;;;;27.52;9.95;;;;;;;13.61;100.00;101648.56;10256154;29;20054;-73
2022/05/26 21:49:17;;;;;;;30.20;12.15;;;;;;;13.50;100.00;101647.59;10220894;29;20050;-76
2022/05/26 21:54:19;;;;;;;25.05;10.77;;;;;;;13.47;100.00;101644.50;10209548;29;20035;-76
2022/05/26 21:59:20;;;;;;;30.92;12.20;;;;;;;13.54;100.00;101631.34;10201275;29;20063;-76
2022/05/26 22:04:25;;;;;;;26.15;10.52;;;;;;;13.61;100.00;101644.97;10200763;29;20563;-75
2022/05/26 22:14:45;;;;;;;31.50;11.10;;;;;;;13.64;100.00;101627.84;10203024;29;20044;-74
2022/05/26 22:19:45;;;;;;;46.35;11.40;;;;;;;13.77;100.00;101633.03;10184665;29;20043;-74
2022/05/26 22:24:46;;;;;;;31.85;12.25;;;;;;;13.77;100.00;101621.94;10217293;29;20032;-75
2022/05/26 22:29:46;;;;;;;34.38;10.00;;;;;;;13.73;100.00;101612.50;10200080;29;20096;-74
2022/05/26 22:40:07;;;;;;;30.38;10.07;;;;;;;13.72;100.00;101586.75;10211064;29;20318;-72
2022/05/26 22:45:10;;;;;;;36.80;9.93;;;;;;;13.86;100.00;101620.38;10207616;29;20102;-75
2022/05/26 22:50:11;;;;;;;25.50;8.13;;;;;;;13.87;100.00;101624.00;10192558;29;20044;-73
2022/05/26 22:55:11;;;;;;;24.33;8.75;;;;;;;13.85;100.00;101610.44;10224475;29;20051;-75
2022/05/26 23:00:14;;;;;;;28.02;8.45;;;;;;;13.87;100.00;101605.47;10207674;29;20032;-75
2022/05/26 23:05:15;;;;;;;28.30;9.15;;;;;;;13.87;100.00;101604.63;10246543;29;20078;-75
2022/05/26 23:10:16;;;;;;;34.50;9.20;;;;;;;13.83;100.00;101601.53;10262508;29;20039;-75
2022/05/26 23:48:20;;;;;;;43.05;11.60;;;;;;;13.34;100.00;101545.31;10305036;28;20042;-75
2022/05/26 23:53:21;;;;;;;28.85;10.18;;;;;;;13.58;100.00;101601.22;10304751;28;20086;-75
2022/05/26 23:58:21;;;;;;;30.20;8.95;;;;;;;13.56;100.00;101600.63;10287462;28;20039;-75
